sensor_id;sensor_type;location;lat;lon;timestamp;P1;durP1;ratioP1;P2;durP2;ratioP2
52982;SDS011;48698;45.736;13.926;2022-12-24T00:01:54;1151.40;;;139.30;;
52982;SDS011;48698;45.736;13.926;2022-12-24T00:06:57;1181.20;;;119.32;;
52982;SDS011;48698;45.736;13.926;2022-12-24T00:11:59;1036.43;;;112.88;;
52982;SDS011;48698;45.736;13.926;2022-12-24T00:17:02;1004.67;;;107.28;;
52982;SDS011;48698;45.736;13.926;2022-12-24T00:22:05;832.20;;;100.45;;
52982;SDS011;48698;45.736;13.926;2022-12-24T00:27:08;834.72;;;105.88;;
52982;SDS011;48698;45.736;13.926;2022-12-24T00:32:11;770.78;;;101.30;;
52982;SDS011;48698;45.736;13.926;2022-12-24T00:37:13;654.55;;;96.22;;
52982;SDS011;48698;45.736;13.926;2022-12-24T00:42:16;668.20;;;98.38;;
52982;SDS011;48698;45.736;13.926;2022-12-24T00:47:19;510.25;;;96.03;;
52982;SDS011;48698;45.736;13.926;2022-12-24T00:52:21;588.90;;;94.13;;
52982;SDS011;48698;45.736;13.926;2022-12-24T00:57:24;301.45;;;72.88;;
52982;SDS011;48698;45.736;13.926;2022-12-24T01:02:27;336.10;;;72.43;;
52982;SDS011;48698;45.736;13.926;2022-12-24T01:07:31;879.80;;;107.33;;
52982;SDS011;48698;45.736;13.926;2022-12-24T01:12:34;1012.25;;;104.90;;
52982;SDS011;48698;45.736;13.926;2022-12-24T01:17:37;765.05;;;93.95;;
52982;SDS011;48698;45.736;13.926;2022-12-24T01:22:40;326.15;;;81.90;;
52982;SDS011;48698;45.736;13.926;2022-12-24T01:27:43;173.85;;;60.45;;
52982;SDS011;48698;45.736;13.926;2022-12-24T01:32:46;134.02;;;50.55;;
52982;SDS011;48698;45.736;13.926;2022-12-24T01:37:48;124.25;;;43.40;;
52982;SDS011;48698;45.736;13.926;2022-12-24T01:42:51;243.30;;;50.58;;
52982;SDS011;48698;45.736;13.926;2022-12-24T01:53:41;308.23;;;57.00;;
52982;SDS011;48698;45.736;13.926;2022-12-24T01:58:47;350.83;;;59.42;;
52982;SDS011;48698;45.736;13.926;2022-12-24T02:04:10;382.05;;;62.55;;
52982;SDS011;48698;45.736;13.926;2022-12-24T02:09:17;366.75;;;61.33;;
52982;SDS011;48698;45.736;13.926;2022-12-24T02:30:03;210.85;;;51.55;;
52982;SDS011;48698;45.736;13.926;2022-12-24T02:40:51;483.10;;;64.72;;
52982;SDS011;48698;45.736;13.926;2022-12-24T02:45:59;393.75;;;59.38;;
52982;SDS011;48698;45.736;13.926;2022-12-24T02:51:08;242.77;;;52.53;;
52982;SDS011;48698;45.736;13.926;2022-12-24T02:56:25;236.83;;;51.47;;
52982;SDS011;48698;45.736;13.926;2022-12-24T03:06:55;219.27;;;50.05;;
52982;SDS011;48698;45.736;13.926;2022-12-24T03:12:37;188.55;;;48.33;;
52982;SDS011;48698;45.736;13.926;2022-12-24T03:17:37;204.43;;;49.80;;
52982;SDS011;48698;45.736;13.926;2022-12-24T03:22:42;140.80;;;48.13;;
52982;SDS011;48698;45.736;13.926;2022-12-24T03:27:44;219.13;;;53.97;;
52982;SDS011;48698;45.736;13.926;2022-12-24T03:32:48;175.02;;;49.65;;
52982;SDS011;48698;45.736;13.926;2022-12-24T03:37:51;224.43;;;49.28;;
52982;SDS011;48698;45.736;13.926;2022-12-24T03:42:54;203.38;;;48.92;;
52982;SDS011;48698;45.736;13.926;2022-12-24T03:47:56;159.10;;;44.20;;
52982;SDS011;48698;45.736;13.926;2022-12-24T03:52:59;221.50;;;48.78;;
52982;SDS011;48698;45.736;13.926;2022-12-24T03:58:02;156.82;;;43.05;;
52982;SDS011;48698;45.736;13.926;2022-12-24T04:03:04;127.78;;;41.42;;
52982;SDS011;48698;45.736;13.926;2022-12-24T04:08:07;194.07;;;46.05;;
52982;SDS011;48698;45.736;13.926;2022-12-24T04:13:10;599.03;;;67.75;;
52982;SDS011;48698;45.736;13.926;2022-12-24T04:18:13;202.55;;;46.67;;
52982;SDS011;48698;45.736;13.926;2022-12-24T04:23:23;171.02;;;40.92;;
52982;SDS011;48698;45.736;13.926;2022-12-24T04:28:30;126.00;;;36.90;;
52982;SDS011;48698;45.736;13.926;2022-12-24T04:33:34;114.03;;;34.58;;
52982;SDS011;48698;45.736;13.926;2022-12-24T04:38:37;111.90;;;35.20;;
52982;SDS011;48698;45.736;13.926;2022-12-24T04:43:40;507.15;;;53.17;;
52982;SDS011;48698;45.736;13.926;2022-12-24T04:48:48;603.50;;;61.13;;
52982;SDS011;48698;45.736;13.926;2022-12-24T04:54:01;64.30;;;28.08;;
52982;SDS011;48698;45.736;13.926;2022-12-24T04:59:03;110.88;;;33.20;;
52982;SDS011;48698;45.736;13.926;2022-12-24T05:04:07;77.03;;;29.92;;
52982;SDS011;48698;45.736;13.926;2022-12-24T05:09:11;93.55;;;29.80;;
52982;SDS011;48698;45.736;13.926;2022-12-24T05:14:18;139.40;;;37.38;;
52982;SDS011;48698;45.736;13.926;2022-12-24T05:19:31;319.30;;;45.92;;
52982;SDS011;48698;45.736;13.926;2022-12-24T05:24:34;417.33;;;54.03;;
52982;SDS011;48698;45.736;13.926;2022-12-24T05:29:56;328.55;;;49.60;;
52982;SDS011;48698;45.736;13.926;2022-12-24T05:34:58;496.88;;;60.13;;
52982;SDS011;48698;45.736;13.926;2022-12-24T05:40:01;153.35;;;39.85;;
52982;SDS011;48698;45.736;13.926;2022-12-24T05:45:15;86.03;;;31.55;;
52982;SDS011;48698;45.736;13.926;2022-12-24T05:50:27;81.78;;;29.50;;
52982;SDS011;48698;45.736;13.926;2022-12-24T05:55:30;65.93;;;30.42;;
52982;SDS011;48698;45.736;13.926;2022-12-24T06:00:33;99.88;;;35.30;;
52982;SDS011;48698;45.736;13.926;2022-12-24T06:05:36;76.00;;;36.17;;
52982;SDS011;48698;45.736;13.926;2022-12-24T06:10:39;68.38;;;32.13;;
52982;SDS011;48698;45.736;13.926;2022-12-24T06:15:41;86.20;;;32.33;;
52982;SDS011;48698;45.736;13.926;2022-12-24T06:20:44;115.57;;;36.80;;
52982;SDS011;48698;45.736;13.926;2022-12-24T06:25:47;177.80;;;77.70;;
52982;SDS011;48698;45.736;13.926;2022-12-24T06:31:00;95.28;;;33.05;;
52982;SDS011;48698;45.736;13.926;2022-12-24T06:36:07;101.82;;;35.55;;
52982;SDS011;48698;45.736;13.926;2022-12-24T06:41:18;70.93;;;29.88;;
52982;SDS011;48698;45.736;13.926;2022-12-24T06:46:21;74.93;;;33.17;;
52982;SDS011;48698;45.736;13.926;2022-12-24T06:51:24;63.10;;;29.48;;
52982;SDS011;48698;45.736;13.926;2022-12-24T06:56:35;73.75;;;31.52;;
52982;SDS011;48698;45.736;13.926;2022-12-24T07:01:38;56.75;;;29.35;;
52982;SDS011;48698;45.736;13.926;2022-12-24T07:06:40;85.38;;;44.97;;
52982;SDS011;48698;45.736;13.926;2022-12-24T07:11:43;89.80;;;48.00;;
52982;SDS011;48698;45.736;13.926;2022-12-24T07:16:46;70.97;;;38.55;;
52982;SDS011;48698;45.736;13.926;2022-12-24T07:21:55;73.40;;;35.65;;
52982;SDS011;48698;45.736;13.926;2022-12-24T07:26:58;77.32;;;39.55;;
52982;SDS011;48698;45.736;13.926;2022-12-24T07:32:09;84.45;;;46.22;;
52982;SDS011;48698;45.736;13.926;2022-12-24T07:37:19;94.75;;;52.15;;
52982;SDS011;48698;45.736;13.926;2022-12-24T07:42:22;112.38;;;61.60;;
52982;SDS011;48698;45.736;13.926;2022-12-24T07:47:25;110.82;;;66.10;;
52982;SDS011;48698;45.736;13.926;2022-12-24T07:52:28;626.88;;;50.50;;
52982;SDS011;48698;45.736;13.926;2022-12-24T07:57:31;165.57;;;71.35;;
52982;SDS011;48698;45.736;13.926;2022-12-24T08:02:34;112.82;;;66.82;;
52982;SDS011;48698;45.736;13.926;2022-12-24T08:07:38;91.27;;;59.10;;
52982;SDS011;48698;45.736;13.926;2022-12-24T08:12:41;356.40;;;47.25;;
52982;SDS011;48698;45.736;13.926;2022-12-24T08:17:54;68.10;;;48.67;;
52982;SDS011;48698;45.736;13.926;2022-12-24T08:22:56;57.35;;;42.30;;
52982;SDS011;48698;45.736;13.926;2022-12-24T08:27:59;85.05;;;69.13;;
52982;SDS011;48698;45.736;13.926;2022-12-24T08:33:02;58.95;;;45.17;;
52982;SDS011;48698;45.736;13.926;2022-12-24T08:38:05;62.08;;;49.85;;
52982;SDS011;48698;45.736;13.926;2022-12-24T08:43:07;65.03;;;53.15;;
52982;SDS011;48698;45.736;13.926;2022-12-24T08:48:10;101.75;;;81.30;;
52982;SDS011;48698;45.736;13.926;2022-12-24T08:53:23;61.05;;;50.03;;
52982;SDS011;48698;45.736;13.926;2022-12-24T08:58:25;44.17;;;33.33;;
52982;SDS011;48698;45.736;13.926;2022-12-24T09:03:28;36.30;;;27.77;;
52982;SDS011;48698;45.736;13.926;2022-12-24T09:08:31;43.13;;;36.17;;
52982;SDS011;48698;45.736;13.926;2022-12-24T09:13:34;37.45;;;26.90;;
52982;SDS011;48698;45.736;13.926;2022-12-24T09:18:38;31.05;;;23.40;;
52982;SDS011;48698;45.736;13.926;2022-12-24T09:23:42;34.72;;;27.60;;
52982;SDS011;48698;45.736;13.926;2022-12-24T09:28:46;32.42;;;26.52;;
52982;SDS011;48698;45.736;13.926;2022-12-24T09:33:49;25.30;;;18.30;;
52982;SDS011;48698;45.736;13.926;2022-12-24T09:38:52;24.70;;;17.02;;
52982;SDS011;48698;45.736;13.926;2022-12-24T09:44:00;34.42;;;25.83;;
52982;SDS011;48698;45.736;13.926;2022-12-24T09:49:10;32.28;;;23.27;;
52982;SDS011;48698;45.736;13.926;2022-12-24T09:59:25;28.50;;;21.10;;
52982;SDS011;48698;45.736;13.926;2022-12-24T10:04:45;31.70;;;25.27;;
52982;SDS011;48698;45.736;13.926;2022-12-24T10:15:15;79.05;;;57.35;;
52982;SDS011;48698;45.736;13.926;2022-12-24T10:30:51;54.17;;;43.17;;
52982;SDS011;48698;45.736;13.926;2022-12-24T10:36:01;35.83;;;28.42;;
52982;SDS011;48698;45.736;13.926;2022-12-24T10:41:13;27.25;;;22.65;;
52982;SDS011;48698;45.736;13.926;2022-12-24T10:46:36;20.00;;;17.03;;
52982;SDS011;48698;45.736;13.926;2022-12-24T10:51:48;28.15;;;24.17;;
52982;SDS011;48698;45.736;13.926;2022-12-24T10:56:56;23.08;;;18.55;;
52982;SDS011;48698;45.736;13.926;2022-12-24T11:02:01;24.15;;;21.13;;
52982;SDS011;48698;45.736;13.926;2022-12-24T11:07:05;19.20;;;15.07;;
52982;SDS011;48698;45.736;13.926;2022-12-24T11:12:20;21.35;;;17.88;;
52982;SDS011;48698;45.736;13.926;2022-12-24T11:17:25;19.30;;;16.45;;
52982;SDS011;48698;45.736;13.926;2022-12-24T11:22:28;25.48;;;18.65;;
52982;SDS011;48698;45.736;13.926;2022-12-24T11:27:38;22.75;;;18.17;;
52982;SDS011;48698;45.736;13.926;2022-12-24T11:32:46;21.83;;;17.08;;
52982;SDS011;48698;45.736;13.926;2022-12-24T11:43:03;22.58;;;18.02;;
52982;SDS011;48698;45.736;13.926;2022-12-24T11:48:23;52.25;;;47.55;;
52982;SDS011;48698;45.736;13.926;2022-12-24T11:53:40;22.00;;;19.52;;
52982;SDS011;48698;45.736;13.926;2022-12-24T11:58:51;21.75;;;17.48;;
52982;SDS011;48698;45.736;13.926;2022-12-24T12:04:05;19.60;;;15.73;;
52982;SDS011;48698;45.736;13.926;2022-12-24T12:09:18;22.98;;;17.73;;
52982;SDS011;48698;45.736;13.926;2022-12-24T12:14:28;17.70;;;15.20;;
52982;SDS011;48698;45.736;13.926;2022-12-24T12:19:47;19.73;;;16.80;;
52982;SDS011;48698;45.736;13.926;2022-12-24T12:24:54;19.17;;;15.30;;
52982;SDS011;48698;45.736;13.926;2022-12-24T12:30:01;17.55;;;14.75;;
52982;SDS011;48698;45.736;13.926;2022-12-24T12:35:16;22.90;;;16.25;;
52982;SDS011;48698;45.736;13.926;2022-12-24T12:40:31;16.38;;;13.63;;
52982;SDS011;48698;45.736;13.926;2022-12-24T12:45:43;21.55;;;13.75;;
52982;SDS011;48698;45.736;13.926;2022-12-24T13:23:21;29.25;;;21.10;;
52982;SDS011;48698;45.736;13.926;2022-12-24T13:38:40;27.27;;;21.15;;
52982;SDS011;48698;45.736;13.926;2022-12-24T13:49:10;25.70;;;19.75;;
52982;SDS011;48698;45.736;13.926;2022-12-24T13:54:20;25.33;;;18.63;;
52982;SDS011;48698;45.736;13.926;2022-12-24T13:59:36;24.45;;;18.88;;
52982;SDS011;48698;45.736;13.926;2022-12-24T14:04:41;27.37;;;20.60;;
52982;SDS011;48698;45.736;13.926;2022-12-24T14:09:51;23.98;;;19.30;;
52982;SDS011;48698;45.736;13.926;2022-12-24T14:14:54;31.52;;;24.92;;
52982;SDS011;48698;45.736;13.926;2022-12-24T14:19:58;35.97;;;25.23;;
52982;SDS011;48698;45.736;13.926;2022-12-24T14:25:13;28.30;;;21.33;;
52982;SDS011;48698;45.736;13.926;2022-12-24T14:30:22;30.13;;;22.65;;
52982;SDS011;48698;45.736;13.926;2022-12-24T14:35:34;26.65;;;21.80;;
52982;SDS011;48698;45.736;13.926;2022-12-24T14:51:33;23.65;;;17.20;;
52982;SDS011;48698;45.736;13.926;2022-12-24T14:56:41;23.45;;;17.98;;
52982;SDS011;48698;45.736;13.926;2022-12-24T15:01:44;25.20;;;17.35;;
52982;SDS011;48698;45.736;13.926;2022-12-24T15:06:56;28.75;;;23.60;;
52982;SDS011;48698;45.736;13.926;2022-12-24T15:12:01;29.17;;;23.25;;
52982;SDS011;48698;45.736;13.926;2022-12-24T15:17:06;29.92;;;21.10;;
52982;SDS011;48698;45.736;13.926;2022-12-24T15:22:17;28.08;;;21.23;;
52982;SDS011;48698;45.736;13.926;2022-12-24T15:27:31;30.55;;;21.55;;
52982;SDS011;48698;45.736;13.926;2022-12-24T15:32:34;28.58;;;21.23;;
52982;SDS011;48698;45.736;13.926;2022-12-24T15:37:36;30.65;;;21.83;;
52982;SDS011;48698;45.736;13.926;2022-12-24T15:42:43;28.15;;;21.77;;
52982;SDS011;48698;45.736;13.926;2022-12-24T15:52:49;28.77;;;23.15;;
52982;SDS011;48698;45.736;13.926;2022-12-24T15:58:26;32.03;;;22.95;;
52982;SDS011;48698;45.736;13.926;2022-12-24T16:03:30;41.33;;;31.25;;
52982;SDS011;48698;45.736;13.926;2022-12-24T16:08:35;32.83;;;25.38;;
52982;SDS011;48698;45.736;13.926;2022-12-24T16:13:41;38.85;;;30.55;;
52982;SDS011;48698;45.736;13.926;2022-12-24T16:19:04;43.25;;;31.17;;
52982;SDS011;48698;45.736;13.926;2022-12-24T16:24:13;41.92;;;32.20;;
52982;SDS011;48698;45.736;13.926;2022-12-24T16:29:19;38.05;;;27.83;;
52982;SDS011;48698;45.736;13.926;2022-12-24T16:34:24;37.73;;;27.67;;
52982;SDS011;48698;45.736;13.926;2022-12-24T16:39:32;39.55;;;29.05;;
52982;SDS011;48698;45.736;13.926;2022-12-24T16:44:46;37.78;;;27.23;;
52982;SDS011;48698;45.736;13.926;2022-12-24T16:49:49;33.50;;;24.33;;
52982;SDS011;48698;45.736;13.926;2022-12-24T16:54:52;44.53;;;31.60;;
52982;SDS011;48698;45.736;13.926;2022-12-24T16:59:55;57.75;;;44.88;;
52982;SDS011;48698;45.736;13.926;2022-12-24T17:05:09;67.03;;;53.42;;
52982;SDS011;48698;45.736;13.926;2022-12-24T17:10:13;48.53;;;38.50;;
52982;SDS011;48698;45.736;13.926;2022-12-24T17:15:15;50.42;;;36.60;;
52982;SDS011;48698;45.736;13.926;2022-12-24T17:20:18;38.55;;;28.13;;
52982;SDS011;48698;45.736;13.926;2022-12-24T17:25:25;41.03;;;28.70;;
52982;SDS011;48698;45.736;13.926;2022-12-24T17:30:28;42.55;;;31.08;;
52982;SDS011;48698;45.736;13.926;2022-12-24T17:35:31;44.78;;;31.63;;
52982;SDS011;48698;45.736;13.926;2022-12-24T17:40:33;45.95;;;33.83;;
52982;SDS011;48698;45.736;13.926;2022-12-24T17:45:40;48.22;;;36.75;;
52982;SDS011;48698;45.736;13.926;2022-12-24T17:50:43;42.08;;;32.55;;
52982;SDS011;48698;45.736;13.926;2022-12-24T17:55:46;42.75;;;31.55;;
52982;SDS011;48698;45.736;13.926;2022-12-24T18:00:49;44.88;;;33.83;;
52982;SDS011;48698;45.736;13.926;2022-12-24T18:05:52;84.13;;;65.88;;
52982;SDS011;48698;45.736;13.926;2022-12-24T18:10:55;51.22;;;39.33;;
52982;SDS011;48698;45.736;13.926;2022-12-24T18:15:57;39.65;;;28.33;;
52982;SDS011;48698;45.736;13.926;2022-12-24T18:21:00;37.72;;;27.50;;
52982;SDS011;48698;45.736;13.926;2022-12-24T18:26:04;55.92;;;33.05;;
52982;SDS011;48698;45.736;13.926;2022-12-24T18:31:08;48.55;;;36.53;;
52982;SDS011;48698;45.736;13.926;2022-12-24T18:36:17;53.13;;;41.88;;
52982;SDS011;48698;45.736;13.926;2022-12-24T18:41:22;41.72;;;32.15;;
52982;SDS011;48698;45.736;13.926;2022-12-24T18:46:29;86.60;;;69.80;;
52982;SDS011;48698;45.736;13.926;2022-12-24T18:51:33;56.88;;;43.13;;
52982;SDS011;48698;45.736;13.926;2022-12-24T18:56:37;54.10;;;39.83;;
52982;SDS011;48698;45.736;13.926;2022-12-24T19:01:40;50.95;;;37.85;;
52982;SDS011;48698;45.736;13.926;2022-12-24T19:06:43;45.47;;;35.38;;
52982;SDS011;48698;45.736;13.926;2022-12-24T19:11:53;47.00;;;34.22;;
52982;SDS011;48698;45.736;13.926;2022-12-24T19:16:56;46.03;;;34.20;;
52982;SDS011;48698;45.736;13.926;2022-12-24T19:21:59;48.92;;;35.67;;
52982;SDS011;48698;45.736;13.926;2022-12-24T19:27:03;46.92;;;33.65;;
52982;SDS011;48698;45.736;13.926;2022-12-24T19:32:05;46.85;;;31.52;;
52982;SDS011;48698;45.736;13.926;2022-12-24T19:37:08;145.57;;;119.13;;
52982;SDS011;48698;45.736;13.926;2022-12-24T19:42:11;45.30;;;35.45;;
52982;SDS011;48698;45.736;13.926;2022-12-24T19:47:13;49.22;;;30.98;;
52982;SDS011;48698;45.736;13.926;2022-12-24T19:52:16;65.05;;;48.72;;
52982;SDS011;48698;45.736;13.926;2022-12-24T19:57:28;59.45;;;47.50;;
52982;SDS011;48698;45.736;13.926;2022-12-24T20:02:31;205.85;;;178.90;;
52982;SDS011;48698;45.736;13.926;2022-12-24T20:07:35;70.78;;;54.33;;
52982;SDS011;48698;45.736;13.926;2022-12-24T20:12:37;71.85;;;50.88;;
52982;SDS011;48698;45.736;13.926;2022-12-24T20:17:40;74.13;;;53.72;;
52982;SDS011;48698;45.736;13.926;2022-12-24T20:22:42;76.13;;;58.70;;
52982;SDS011;48698;45.736;13.926;2022-12-24T20:27:45;59.67;;;45.55;;
52982;SDS011;48698;45.736;13.926;2022-12-24T20:32:51;56.28;;;40.33;;
52982;SDS011;48698;45.736;13.926;2022-12-24T20:37:54;54.75;;;42.75;;
52982;SDS011;48698;45.736;13.926;2022-12-24T20:42:57;49.00;;;37.28;;
52982;SDS011;48698;45.736;13.926;2022-12-24T20:48:00;54.17;;;37.60;;
52982;SDS011;48698;45.736;13.926;2022-12-24T20:53:04;44.90;;;34.10;;
52982;SDS011;48698;45.736;13.926;2022-12-24T20:58:08;40.25;;;27.67;;
52982;SDS011;48698;45.736;13.926;2022-12-24T21:03:14;36.78;;;27.35;;
52982;SDS011;48698;45.736;13.926;2022-12-24T21:08:18;81.95;;;54.70;;
52982;SDS011;48698;45.736;13.926;2022-12-24T21:13:21;74.97;;;48.80;;
52982;SDS011;48698;45.736;13.926;2022-12-24T21:18:25;39.58;;;29.92;;
52982;SDS011;48698;45.736;13.926;2022-12-24T21:23:30;35.90;;;26.45;;
52982;SDS011;48698;45.736;13.926;2022-12-24T21:28:44;49.33;;;31.75;;
52982;SDS011;48698;45.736;13.926;2022-12-24T21:33:47;59.65;;;37.88;;
52982;SDS011;48698;45.736;13.926;2022-12-24T21:38:54;58.88;;;37.25;;
52982;SDS011;48698;45.736;13.926;2022-12-24T21:43:59;79.25;;;38.42;;
52982;SDS011;48698;45.736;13.926;2022-12-24T21:49:13;42.17;;;32.05;;
52982;SDS011;48698;45.736;13.926;2022-12-24T21:54:46;43.92;;;31.90;;
52982;SDS011;48698;45.736;13.926;2022-12-24T21:59:51;52.45;;;44.58;;
52982;SDS011;48698;45.736;13.926;2022-12-24T22:04:57;36.58;;;24.90;;
52982;SDS011;48698;45.736;13.926;2022-12-24T22:10:12;32.15;;;24.27;;
52982;SDS011;48698;45.736;13.926;2022-12-24T22:15:40;45.20;;;29.77;;
52982;SDS011;48698;45.736;13.926;2022-12-24T22:20:51;37.72;;;26.70;;
52982;SDS011;48698;45.736;13.926;2022-12-24T22:25:56;34.63;;;24.90;;
52982;SDS011;48698;45.736;13.926;2022-12-24T22:31:00;30.35;;;24.52;;
52982;SDS011;48698;45.736;13.926;2022-12-24T22:36:04;31.15;;;22.60;;
52982;SDS011;48698;45.736;13.926;2022-12-24T22:41:08;29.00;;;22.67;;
52982;SDS011;48698;45.736;13.926;2022-12-24T22:46:13;24.13;;;19.48;;
52982;SDS011;48698;45.736;13.926;2022-12-24T22:51:18;26.08;;;20.10;;
52982;SDS011;48698;45.736;13.926;2022-12-24T22:56:23;29.75;;;22.92;;
52982;SDS011;48698;45.736;13.926;2022-12-24T23:01:35;51.60;;;46.20;;
52982;SDS011;48698;45.736;13.926;2022-12-24T23:06:40;22.95;;;20.42;;
52982;SDS011;48698;45.736;13.926;2022-12-24T23:11:46;18.42;;;16.00;;
52982;SDS011;48698;45.736;13.926;2022-12-24T23:16:49;20.65;;;17.10;;
52982;SDS011;48698;45.736;13.926;2022-12-24T23:21:52;24.58;;;17.48;;
52982;SDS011;48698;45.736;13.926;2022-12-24T23:26:56;20.42;;;17.67;;
52982;SDS011;48698;45.736;13.926;2022-12-24T23:32:01;21.35;;;19.08;;
52982;SDS011;48698;45.736;13.926;2022-12-24T23:37:04;25.27;;;21.85;;
52982;SDS011;48698;45.736;13.926;2022-12-24T23:42:08;24.90;;;21.63;;
52982;SDS011;48698;45.736;13.926;2022-12-24T23:47:12;24.53;;;21.97;;
52982;SDS011;48698;45.736;13.926;2022-12-24T23:52:16;32.73;;;27.67;;
52982;SDS011;48698;45.736;13.926;2022-12-24T23:57:19;27.45;;;24.17;;
